sensor_id;sensor_type;location;lat;lon;timestamp;P1;durP1;ratioP1;P2;durP2;ratioP2
55362;SDS011;41244;49.242;9.060;2024-01-15T00:01:59;51.45;;;20.85;;
55362;SDS011;41244;49.242;9.060;2024-01-15T00:04:25;57.67;;;21.95;;
55362;SDS011;41244;49.242;9.060;2024-01-15T00:06:51;55.42;;;23.42;;
55362;SDS011;41244;49.242;9.060;2024-01-15T00:09:16;53.72;;;22.75;;
55362;SDS011;41244;49.242;9.060;2024-01-15T00:11:42;59.33;;;24.05;;
55362;SDS011;41244;49.242;9.060;2024-01-15T00:14:08;51.88;;;23.15;;
55362;SDS011;41244;49.242;9.060;2024-01-15T00:16:34;57.00;;;22.25;;
55362;SDS011;41244;49.242;9.060;2024-01-15T00:19:00;58.30;;;24.08;;
55362;SDS011;41244;49.242;9.060;2024-01-15T00:21:26;52.25;;;24.08;;
55362;SDS011;41244;49.242;9.060;2024-01-15T00:23:52;55.88;;;23.77;;
55362;SDS011;41244;49.242;9.060;2024-01-15T00:26:18;55.05;;;23.67;;
55362;SDS011;41244;49.242;9.060;2024-01-15T00:28:44;55.65;;;22.58;;
55362;SDS011;41244;49.242;9.060;2024-01-15T00:31:10;54.33;;;22.05;;
55362;SDS011;41244;49.242;9.060;2024-01-15T00:33:36;49.50;;;21.98;;
55362;SDS011;41244;49.242;9.060;2024-01-15T00:36:01;53.53;;;23.60;;
55362;SDS011;41244;49.242;9.060;2024-01-15T00:38:28;48.58;;;19.60;;
55362;SDS011;41244;49.242;9.060;2024-01-15T00:40:54;57.55;;;24.73;;
55362;SDS011;41244;49.242;9.060;2024-01-15T00:43:20;54.72;;;23.60;;
55362;SDS011;41244;49.242;9.060;2024-01-15T00:45:46;54.33;;;23.55;;
55362;SDS011;41244;49.242;9.060;2024-01-15T00:48:11;54.22;;;24.42;;
55362;SDS011;41244;49.242;9.060;2024-01-15T00:50:37;57.35;;;24.08;;
55362;SDS011;41244;49.242;9.060;2024-01-15T00:53:03;48.50;;;21.45;;
55362;SDS011;41244;49.242;9.060;2024-01-15T00:55:29;45.50;;;21.92;;
55362;SDS011;41244;49.242;9.060;2024-01-15T00:57:55;55.30;;;22.80;;
55362;SDS011;41244;49.242;9.060;2024-01-15T01:00:20;63.67;;;23.52;;
55362;SDS011;41244;49.242;9.060;2024-01-15T01:02:46;48.00;;;20.92;;
55362;SDS011;41244;49.242;9.060;2024-01-15T01:05:12;55.88;;;23.10;;
55362;SDS011;41244;49.242;9.060;2024-01-15T01:07:38;54.65;;;22.85;;
55362;SDS011;41244;49.242;9.060;2024-01-15T01:10:04;52.88;;;23.98;;
55362;SDS011;41244;49.242;9.060;2024-01-15T01:12:30;49.42;;;19.33;;
55362;SDS011;41244;49.242;9.060;2024-01-15T01:14:56;54.10;;;21.27;;
55362;SDS011;41244;49.242;9.060;2024-01-15T01:17:22;48.50;;;22.08;;
55362;SDS011;41244;49.242;9.060;2024-01-15T01:19:48;58.30;;;22.30;;
55362;SDS011;41244;49.242;9.060;2024-01-15T01:22:14;53.40;;;21.67;;
55362;SDS011;41244;49.242;9.060;2024-01-15T01:24:40;43.38;;;19.00;;
55362;SDS011;41244;49.242;9.060;2024-01-15T01:27:06;44.03;;;18.92;;
55362;SDS011;41244;49.242;9.060;2024-01-15T01:29:32;54.55;;;21.83;;
55362;SDS011;41244;49.242;9.060;2024-01-15T01:31:57;53.40;;;21.08;;
55362;SDS011;41244;49.242;9.060;2024-01-15T01:34:23;43.70;;;20.10;;
55362;SDS011;41244;49.242;9.060;2024-01-15T01:36:49;55.08;;;23.08;;
55362;SDS011;41244;49.242;9.060;2024-01-15T01:39:15;54.33;;;23.08;;
55362;SDS011;41244;49.242;9.060;2024-01-15T01:41:41;36.55;;;18.10;;
55362;SDS011;41244;49.242;9.060;2024-01-15T01:44:07;45.45;;;20.20;;
55362;SDS011;41244;49.242;9.060;2024-01-15T01:46:33;51.72;;;24.00;;
55362;SDS011;41244;49.242;9.060;2024-01-15T01:48:59;56.03;;;23.48;;
55362;SDS011;41244;49.242;9.060;2024-01-15T01:51:30;44.85;;;18.85;;
55362;SDS011;41244;49.242;9.060;2024-01-15T01:53:56;48.35;;;21.50;;
55362;SDS011;41244;49.242;9.060;2024-01-15T01:56:22;59.22;;;25.27;;
55362;SDS011;41244;49.242;9.060;2024-01-15T01:58:48;55.70;;;22.77;;
55362;SDS011;41244;49.242;9.060;2024-01-15T02:01:13;48.55;;;21.98;;
55362;SDS011;41244;49.242;9.060;2024-01-15T02:03:40;52.45;;;23.38;;
55362;SDS011;41244;49.242;9.060;2024-01-15T02:06:06;44.88;;;20.60;;
55362;SDS011;41244;49.242;9.060;2024-01-15T02:08:32;54.35;;;24.95;;
55362;SDS011;41244;49.242;9.060;2024-01-15T02:10:59;36.33;;;15.68;;
55362;SDS011;41244;49.242;9.060;2024-01-15T02:13:25;50.28;;;22.10;;
55362;SDS011;41244;49.242;9.060;2024-01-15T02:15:51;49.80;;;21.52;;
55362;SDS011;41244;49.242;9.060;2024-01-15T02:18:17;46.92;;;19.13;;
55362;SDS011;41244;49.242;9.060;2024-01-15T02:20:43;48.00;;;19.42;;
55362;SDS011;41244;49.242;9.060;2024-01-15T02:23:13;40.70;;;17.10;;
55362;SDS011;41244;49.242;9.060;2024-01-15T02:25:40;48.42;;;21.60;;
55362;SDS011;41244;49.242;9.060;2024-01-15T02:28:09;50.33;;;18.80;;
55362;SDS011;41244;49.242;9.060;2024-01-15T02:30:37;35.80;;;17.58;;
55362;SDS011;41244;49.242;9.060;2024-01-15T02:33:04;50.70;;;21.67;;
55362;SDS011;41244;49.242;9.060;2024-01-15T02:35:31;49.00;;;21.23;;
55362;SDS011;41244;49.242;9.060;2024-01-15T02:37:58;46.60;;;19.90;;
55362;SDS011;41244;49.242;9.060;2024-01-15T02:40:24;45.13;;;20.27;;
55362;SDS011;41244;49.242;9.060;2024-01-15T02:42:49;49.22;;;19.92;;
55362;SDS011;41244;49.242;9.060;2024-01-15T02:45:15;48.85;;;21.52;;
55362;SDS011;41244;49.242;9.060;2024-01-15T02:47:42;50.97;;;20.40;;
55362;SDS011;41244;49.242;9.060;2024-01-15T02:50:07;44.42;;;19.55;;
55362;SDS011;41244;49.242;9.060;2024-01-15T02:52:33;49.90;;;22.80;;
55362;SDS011;41244;49.242;9.060;2024-01-15T02:54:59;50.80;;;20.55;;
55362;SDS011;41244;49.242;9.060;2024-01-15T02:57:25;50.85;;;21.48;;
55362;SDS011;41244;49.242;9.060;2024-01-15T02:59:50;47.75;;;21.23;;
55362;SDS011;41244;49.242;9.060;2024-01-15T03:02:16;50.83;;;21.42;;
55362;SDS011;41244;49.242;9.060;2024-01-15T03:04:45;49.53;;;20.73;;
55362;SDS011;41244;49.242;9.060;2024-01-15T03:07:11;41.35;;;17.90;;
55362;SDS011;41244;49.242;9.060;2024-01-15T03:09:37;45.67;;;20.90;;
55362;SDS011;41244;49.242;9.060;2024-01-15T03:12:03;45.85;;;20.48;;
55362;SDS011;41244;49.242;9.060;2024-01-15T03:14:29;41.35;;;18.90;;
55362;SDS011;41244;49.242;9.060;2024-01-15T03:16:55;48.22;;;21.63;;
55362;SDS011;41244;49.242;9.060;2024-01-15T03:19:21;43.17;;;19.70;;
55362;SDS011;41244;49.242;9.060;2024-01-15T03:21:47;42.70;;;19.85;;
55362;SDS011;41244;49.242;9.060;2024-01-15T03:24:13;47.83;;;22.73;;
55362;SDS011;41244;49.242;9.060;2024-01-15T03:26:39;41.80;;;19.50;;
55362;SDS011;41244;49.242;9.060;2024-01-15T03:29:04;38.42;;;18.35;;
55362;SDS011;41244;49.242;9.060;2024-01-15T03:31:31;46.20;;;21.00;;
55362;SDS011;41244;49.242;9.060;2024-01-15T03:33:56;51.80;;;22.83;;
55362;SDS011;41244;49.242;9.060;2024-01-15T03:36:22;45.00;;;20.83;;
55362;SDS011;41244;49.242;9.060;2024-01-15T03:38:48;44.45;;;19.27;;
55362;SDS011;41244;49.242;9.060;2024-01-15T03:41:14;47.80;;;21.55;;
55362;SDS011;41244;49.242;9.060;2024-01-15T03:43:39;32.85;;;15.73;;
55362;SDS011;41244;49.242;9.060;2024-01-15T03:46:05;42.08;;;19.75;;
55362;SDS011;41244;49.242;9.060;2024-01-15T03:48:32;45.78;;;21.27;;
55362;SDS011;41244;49.242;9.060;2024-01-15T03:50:57;47.50;;;19.67;;
55362;SDS011;41244;49.242;9.060;2024-01-15T03:53:23;47.35;;;19.70;;
55362;SDS011;41244;49.242;9.060;2024-01-15T03:55:49;45.88;;;18.65;;
55362;SDS011;41244;49.242;9.060;2024-01-15T03:58:15;41.67;;;16.92;;
55362;SDS011;41244;49.242;9.060;2024-01-15T04:00:41;47.88;;;20.73;;
55362;SDS011;41244;49.242;9.060;2024-01-15T04:03:07;49.38;;;21.35;;
55362;SDS011;41244;49.242;9.060;2024-01-15T04:05:33;41.45;;;20.83;;
55362;SDS011;41244;49.242;9.060;2024-01-15T04:07:59;41.72;;;18.98;;
55362;SDS011;41244;49.242;9.060;2024-01-15T04:10:25;37.72;;;16.70;;
55362;SDS011;41244;49.242;9.060;2024-01-15T04:12:51;38.92;;;18.35;;
55362;SDS011;41244;49.242;9.060;2024-01-15T04:15:16;43.03;;;20.23;;
55362;SDS011;41244;49.242;9.060;2024-01-15T04:17:42;47.42;;;19.67;;
55362;SDS011;41244;49.242;9.060;2024-01-15T04:20:08;41.60;;;18.88;;
55362;SDS011;41244;49.242;9.060;2024-01-15T04:22:35;39.75;;;19.10;;
55362;SDS011;41244;49.242;9.060;2024-01-15T04:25:01;38.15;;;17.50;;
55362;SDS011;41244;49.242;9.060;2024-01-15T04:27:27;47.40;;;20.58;;
55362;SDS011;41244;49.242;9.060;2024-01-15T04:29:53;47.22;;;19.38;;
55362;SDS011;41244;49.242;9.060;2024-01-15T04:32:19;45.50;;;20.77;;
55362;SDS011;41244;49.242;9.060;2024-01-15T04:34:45;41.88;;;21.52;;
55362;SDS011;41244;49.242;9.060;2024-01-15T04:37:11;40.17;;;19.67;;
55362;SDS011;41244;49.242;9.060;2024-01-15T04:39:36;40.90;;;19.00;;
55362;SDS011;41244;49.242;9.060;2024-01-15T04:42:02;39.58;;;18.40;;
55362;SDS011;41244;49.242;9.060;2024-01-15T04:44:29;46.22;;;19.27;;
55362;SDS011;41244;49.242;9.060;2024-01-15T04:46:54;39.90;;;18.77;;
55362;SDS011;41244;49.242;9.060;2024-01-15T04:49:20;40.97;;;20.05;;
55362;SDS011;41244;49.242;9.060;2024-01-15T04:51:46;41.28;;;20.00;;
55362;SDS011;41244;49.242;9.060;2024-01-15T04:54:11;42.75;;;19.83;;
55362;SDS011;41244;49.242;9.060;2024-01-15T04:56:37;45.15;;;19.55;;
55362;SDS011;41244;49.242;9.060;2024-01-15T04:59:03;40.15;;;20.27;;
55362;SDS011;41244;49.242;9.060;2024-01-15T05:01:32;40.95;;;20.13;;
55362;SDS011;41244;49.242;9.060;2024-01-15T05:03:58;38.05;;;17.38;;
55362;SDS011;41244;49.242;9.060;2024-01-15T05:06:24;41.28;;;17.73;;
55362;SDS011;41244;49.242;9.060;2024-01-15T05:08:50;40.20;;;18.50;;
55362;SDS011;41244;49.242;9.060;2024-01-15T05:11:16;38.17;;;18.42;;
55362;SDS011;41244;49.242;9.060;2024-01-15T05:13:41;40.85;;;18.25;;
55362;SDS011;41244;49.242;9.060;2024-01-15T05:16:07;39.60;;;18.00;;
55362;SDS011;41244;49.242;9.060;2024-01-15T05:18:33;43.15;;;18.65;;
55362;SDS011;41244;49.242;9.060;2024-01-15T05:20:59;36.85;;;17.17;;
55362;SDS011;41244;49.242;9.060;2024-01-15T05:23:25;35.90;;;16.77;;
55362;SDS011;41244;49.242;9.060;2024-01-15T05:25:50;41.88;;;19.05;;
55362;SDS011;41244;49.242;9.060;2024-01-15T05:28:16;36.55;;;17.00;;
55362;SDS011;41244;49.242;9.060;2024-01-15T05:30:42;36.55;;;17.98;;
55362;SDS011;41244;49.242;9.060;2024-01-15T05:33:08;35.05;;;18.00;;
55362;SDS011;41244;49.242;9.060;2024-01-15T05:35:34;32.47;;;16.52;;
55362;SDS011;41244;49.242;9.060;2024-01-15T05:37:59;38.25;;;19.60;;
55362;SDS011;41244;49.242;9.060;2024-01-15T05:40:25;39.00;;;19.08;;
55362;SDS011;41244;49.242;9.060;2024-01-15T05:42:51;37.20;;;17.88;;
55362;SDS011;41244;49.242;9.060;2024-01-15T05:45:17;41.88;;;19.58;;
55362;SDS011;41244;49.242;9.060;2024-01-15T05:47:43;39.47;;;19.20;;
55362;SDS011;41244;49.242;9.060;2024-01-15T05:50:09;40.55;;;19.48;;
55362;SDS011;41244;49.242;9.060;2024-01-15T05:52:35;38.90;;;18.73;;
55362;SDS011;41244;49.242;9.060;2024-01-15T05:55:01;41.78;;;20.60;;
55362;SDS011;41244;49.242;9.060;2024-01-15T05:57:28;44.45;;;20.65;;
55362;SDS011;41244;49.242;9.060;2024-01-15T05:59:54;38.45;;;19.10;;
55362;SDS011;41244;49.242;9.060;2024-01-15T06:02:20;41.97;;;19.55;;
55362;SDS011;41244;49.242;9.060;2024-01-15T06:04:46;45.25;;;20.75;;
55362;SDS011;41244;49.242;9.060;2024-01-15T06:07:12;42.45;;;18.98;;
55362;SDS011;41244;49.242;9.060;2024-01-15T06:09:37;41.72;;;19.70;;
55362;SDS011;41244;49.242;9.060;2024-01-15T06:12:03;41.90;;;21.80;;
55362;SDS011;41244;49.242;9.060;2024-01-15T06:14:31;42.28;;;18.55;;
55362;SDS011;41244;49.242;9.060;2024-01-15T06:16:57;41.53;;;20.55;;
55362;SDS011;41244;49.242;9.060;2024-01-15T06:19:23;38.55;;;17.98;;
55362;SDS011;41244;49.242;9.060;2024-01-15T06:21:49;42.15;;;20.38;;
55362;SDS011;41244;49.242;9.060;2024-01-15T06:24:14;43.33;;;21.33;;
55362;SDS011;41244;49.242;9.060;2024-01-15T06:26:42;41.90;;;21.17;;
55362;SDS011;41244;49.242;9.060;2024-01-15T06:29:08;43.40;;;21.33;;
55362;SDS011;41244;49.242;9.060;2024-01-15T06:31:34;37.60;;;20.25;;
55362;SDS011;41244;49.242;9.060;2024-01-15T06:34:00;42.63;;;21.52;;
55362;SDS011;41244;49.242;9.060;2024-01-15T06:36:25;44.13;;;20.10;;
55362;SDS011;41244;49.242;9.060;2024-01-15T06:38:51;41.95;;;19.98;;
55362;SDS011;41244;49.242;9.060;2024-01-15T06:41:17;37.03;;;18.60;;
55362;SDS011;41244;49.242;9.060;2024-01-15T06:43:42;39.03;;;19.65;;
55362;SDS011;41244;49.242;9.060;2024-01-15T06:46:08;36.22;;;18.15;;
55362;SDS011;41244;49.242;9.060;2024-01-15T06:48:34;37.47;;;19.02;;
55362;SDS011;41244;49.242;9.060;2024-01-15T06:51:00;35.30;;;16.42;;
55362;SDS011;41244;49.242;9.060;2024-01-15T06:53:26;36.88;;;19.35;;
55362;SDS011;41244;49.242;9.060;2024-01-15T06:55:51;37.88;;;20.27;;
55362;SDS011;41244;49.242;9.060;2024-01-15T06:58:17;34.00;;;17.27;;
55362;SDS011;41244;49.242;9.060;2024-01-15T07:00:43;30.88;;;15.15;;
55362;SDS011;41244;49.242;9.060;2024-01-15T07:03:09;37.28;;;17.77;;
55362;SDS011;41244;49.242;9.060;2024-01-15T07:05:34;36.40;;;19.42;;
55362;SDS011;41244;49.242;9.060;2024-01-15T07:08:02;34.92;;;17.35;;
55362;SDS011;41244;49.242;9.060;2024-01-15T07:10:28;37.97;;;19.45;;
55362;SDS011;41244;49.242;9.060;2024-01-15T07:12:54;35.83;;;18.50;;
55362;SDS011;41244;49.242;9.060;2024-01-15T07:15:19;37.47;;;18.10;;
55362;SDS011;41244;49.242;9.060;2024-01-15T07:17:45;43.22;;;20.42;;
55362;SDS011;41244;49.242;9.060;2024-01-15T07:20:11;38.00;;;19.02;;
55362;SDS011;41244;49.242;9.060;2024-01-15T07:22:37;34.55;;;17.83;;
55362;SDS011;41244;49.242;9.060;2024-01-15T07:25:03;39.08;;;19.27;;
55362;SDS011;41244;49.242;9.060;2024-01-15T07:27:30;34.65;;;18.23;;
55362;SDS011;41244;49.242;9.060;2024-01-15T07:29:56;29.38;;;15.85;;
55362;SDS011;41244;49.242;9.060;2024-01-15T07:32:23;36.95;;;16.83;;
55362;SDS011;41244;49.242;9.060;2024-01-15T07:34:49;33.35;;;17.60;;
55362;SDS011;41244;49.242;9.060;2024-01-15T07:37:15;36.90;;;19.30;;
55362;SDS011;41244;49.242;9.060;2024-01-15T07:39:40;38.40;;;19.48;;
55362;SDS011;41244;49.242;9.060;2024-01-15T07:42:06;35.33;;;17.27;;
55362;SDS011;41244;49.242;9.060;2024-01-15T07:44:32;32.28;;;18.27;;
55362;SDS011;41244;49.242;9.060;2024-01-15T07:46:58;40.20;;;19.95;;
55362;SDS011;41244;49.242;9.060;2024-01-15T07:49:24;38.65;;;20.35;;
55362;SDS011;41244;49.242;9.060;2024-01-15T07:51:50;36.67;;;18.75;;
55362;SDS011;41244;49.242;9.060;2024-01-15T07:54:16;36.83;;;20.35;;
55362;SDS011;41244;49.242;9.060;2024-01-15T07:56:55;41.50;;;20.73;;
55362;SDS011;41244;49.242;9.060;2024-01-15T07:59:28;37.65;;;18.67;;
55362;SDS011;41244;49.242;9.060;2024-01-15T08:01:54;34.60;;;18.45;;
55362;SDS011;41244;49.242;9.060;2024-01-15T08:04:20;36.97;;;19.30;;
55362;SDS011;41244;49.242;9.060;2024-01-15T08:06:47;35.80;;;19.77;;
55362;SDS011;41244;49.242;9.060;2024-01-15T08:09:13;38.45;;;20.40;;
55362;SDS011;41244;49.242;9.060;2024-01-15T08:11:39;34.25;;;19.42;;
55362;SDS011;41244;49.242;9.060;2024-01-15T08:14:06;32.10;;;17.75;;
55362;SDS011;41244;49.242;9.060;2024-01-15T08:16:32;36.15;;;19.92;;
55362;SDS011;41244;49.242;9.060;2024-01-15T08:18:58;34.10;;;17.00;;
55362;SDS011;41244;49.242;9.060;2024-01-15T08:21:24;36.45;;;17.92;;
55362;SDS011;41244;49.242;9.060;2024-01-15T08:23:50;39.38;;;19.45;;
55362;SDS011;41244;49.242;9.060;2024-01-15T08:26:16;31.73;;;17.15;;
55362;SDS011;41244;49.242;9.060;2024-01-15T08:28:42;35.20;;;19.48;;
55362;SDS011;41244;49.242;9.060;2024-01-15T08:31:08;33.28;;;16.88;;
55362;SDS011;41244;49.242;9.060;2024-01-15T08:33:34;34.35;;;17.58;;
55362;SDS011;41244;49.242;9.060;2024-01-15T08:36:01;33.85;;;16.30;;
55362;SDS011;41244;49.242;9.060;2024-01-15T08:38:26;33.25;;;16.13;;
55362;SDS011;41244;49.242;9.060;2024-01-15T08:40:52;32.85;;;17.75;;
55362;SDS011;41244;49.242;9.060;2024-01-15T08:43:21;32.90;;;17.10;;
55362;SDS011;41244;49.242;9.060;2024-01-15T08:45:47;32.17;;;17.10;;
55362;SDS011;41244;49.242;9.060;2024-01-15T08:48:13;36.58;;;17.35;;
55362;SDS011;41244;49.242;9.060;2024-01-15T08:50:39;36.00;;;17.77;;
55362;SDS011;41244;49.242;9.060;2024-01-15T08:53:04;37.45;;;18.65;;
55362;SDS011;41244;49.242;9.060;2024-01-15T08:55:30;37.70;;;19.05;;
55362;SDS011;41244;49.242;9.060;2024-01-15T08:57:56;36.35;;;18.25;;
55362;SDS011;41244;49.242;9.060;2024-01-15T09:00:22;40.92;;;19.30;;
55362;SDS011;41244;49.242;9.060;2024-01-15T09:02:48;44.53;;;20.83;;
55362;SDS011;41244;49.242;9.060;2024-01-15T09:05:13;39.97;;;19.45;;
55362;SDS011;41244;49.242;9.060;2024-01-15T09:07:39;40.88;;;19.45;;
55362;SDS011;41244;49.242;9.060;2024-01-15T09:10:05;35.42;;;17.77;;
55362;SDS011;41244;49.242;9.060;2024-01-15T09:12:31;38.17;;;17.30;;
55362;SDS011;41244;49.242;9.060;2024-01-15T09:14:57;44.10;;;19.15;;
55362;SDS011;41244;49.242;9.060;2024-01-15T09:17:23;42.75;;;19.35;;
55362;SDS011;41244;49.242;9.060;2024-01-15T09:19:49;38.78;;;19.50;;
55362;SDS011;41244;49.242;9.060;2024-01-15T09:22:15;38.75;;;19.15;;
55362;SDS011;41244;49.242;9.060;2024-01-15T09:24:44;39.25;;;18.30;;
55362;SDS011;41244;49.242;9.060;2024-01-15T09:27:10;39.45;;;18.08;;
55362;SDS011;41244;49.242;9.060;2024-01-15T09:29:36;37.70;;;19.00;;
55362;SDS011;41244;49.242;9.060;2024-01-15T09:32:05;38.78;;;20.42;;
55362;SDS011;41244;49.242;9.060;2024-01-15T09:34:32;33.95;;;18.58;;
55362;SDS011;41244;49.242;9.060;2024-01-15T09:36:59;36.92;;;18.45;;
55362;SDS011;41244;49.242;9.060;2024-01-15T09:39:25;40.15;;;20.58;;
55362;SDS011;41244;49.242;9.060;2024-01-15T09:41:52;37.08;;;20.45;;
55362;SDS011;41244;49.242;9.060;2024-01-15T09:44:19;39.42;;;19.58;;
55362;SDS011;41244;49.242;9.060;2024-01-15T09:46:45;42.22;;;20.55;;
55362;SDS011;41244;49.242;9.060;2024-01-15T09:49:14;33.05;;;19.23;;
55362;SDS011;41244;49.242;9.060;2024-01-15T09:51:44;43.20;;;20.90;;
55362;SDS011;41244;49.242;9.060;2024-01-15T09:54:10;34.22;;;19.80;;
55362;SDS011;41244;49.242;9.060;2024-01-15T09:56:38;32.10;;;17.15;;
55362;SDS011;41244;49.242;9.060;2024-01-15T09:59:04;30.20;;;16.33;;
55362;SDS011;41244;49.242;9.060;2024-01-15T10:01:34;36.22;;;18.48;;
55362;SDS011;41244;49.242;9.060;2024-01-15T10:04:02;39.97;;;18.60;;
55362;SDS011;41244;49.242;9.060;2024-01-15T10:06:28;37.15;;;19.67;;
55362;SDS011;41244;49.242;9.060;2024-01-15T10:08:54;29.95;;;17.08;;
55362;SDS011;41244;49.242;9.060;2024-01-15T10:11:23;33.65;;;17.02;;
55362;SDS011;41244;49.242;9.060;2024-01-15T10:13:49;30.90;;;15.65;;
55362;SDS011;41244;49.242;9.060;2024-01-15T10:16:18;32.22;;;18.02;;
55362;SDS011;41244;49.242;9.060;2024-01-15T10:18:44;32.33;;;17.58;;
55362;SDS011;41244;49.242;9.060;2024-01-15T10:21:10;32.40;;;17.65;;
55362;SDS011;41244;49.242;9.060;2024-01-15T10:23:36;33.47;;;17.98;;
55362;SDS011;41244;49.242;9.060;2024-01-15T10:26:02;36.67;;;18.50;;
55362;SDS011;41244;49.242;9.060;2024-01-15T10:28:29;36.42;;;17.83;;
55362;SDS011;41244;49.242;9.060;2024-01-15T10:30:57;32.17;;;17.90;;
55362;SDS011;41244;49.242;9.060;2024-01-15T10:33:24;32.33;;;17.23;;
55362;SDS011;41244;49.242;9.060;2024-01-15T10:35:50;36.55;;;18.27;;
55362;SDS011;41244;49.242;9.060;2024-01-15T10:38:20;39.45;;;19.10;;
55362;SDS011;41244;49.242;9.060;2024-01-15T10:40:47;38.60;;;19.90;;
55362;SDS011;41244;49.242;9.060;2024-01-15T10:43:19;42.58;;;19.08;;
55362;SDS011;41244;49.242;9.060;2024-01-15T10:45:45;33.70;;;17.45;;
55362;SDS011;41244;49.242;9.060;2024-01-15T10:48:12;31.83;;;17.88;;
55362;SDS011;41244;49.242;9.060;2024-01-15T10:50:38;34.47;;;19.42;;
55362;SDS011;41244;49.242;9.060;2024-01-15T10:53:04;35.95;;;17.85;;
55362;SDS011;41244;49.242;9.060;2024-01-15T10:55:31;34.42;;;19.45;;
55362;SDS011;41244;49.242;9.060;2024-01-15T10:57:57;30.35;;;17.58;;
55362;SDS011;41244;49.242;9.060;2024-01-15T11:00:23;29.52;;;16.65;;
55362;SDS011;41244;49.242;9.060;2024-01-15T11:02:50;35.17;;;18.85;;
55362;SDS011;41244;49.242;9.060;2024-01-15T11:05:16;35.47;;;17.67;;
55362;SDS011;41244;49.242;9.060;2024-01-15T11:07:43;33.67;;;17.42;;
55362;SDS011;41244;49.242;9.060;2024-01-15T11:10:37;35.72;;;17.95;;
55362;SDS011;41244;49.242;9.060;2024-01-15T11:15:58;30.00;;;17.70;;
55362;SDS011;41244;49.242;9.060;2024-01-15T11:18:27;34.03;;;17.98;;
55362;SDS011;41244;49.242;9.060;2024-01-15T11:29:10;26.23;;;15.18;;
55362;SDS011;41244;49.242;9.060;2024-01-15T11:37:23;30.52;;;15.70;;
55362;SDS011;41244;49.242;9.060;2024-01-15T11:39:53;32.90;;;15.57;;
55362;SDS011;41244;49.242;9.060;2024-01-15T11:42:28;30.88;;;17.15;;
55362;SDS011;41244;49.242;9.060;2024-01-15T11:44:55;29.25;;;15.95;;
55362;SDS011;41244;49.242;9.060;2024-01-15T11:47:40;31.13;;;17.83;;
55362;SDS011;41244;49.242;9.060;2024-01-15T11:50:15;37.47;;;17.50;;
55362;SDS011;41244;49.242;9.060;2024-01-15T11:52:41;29.90;;;16.83;;
55362;SDS011;41244;49.242;9.060;2024-01-15T11:55:29;27.70;;;15.73;;
55362;SDS011;41244;49.242;9.060;2024-01-15T11:58:00;33.08;;;17.13;;
55362;SDS011;41244;49.242;9.060;2024-01-15T12:00:27;28.38;;;15.38;;
55362;SDS011;41244;49.242;9.060;2024-01-15T12:02:53;30.90;;;17.45;;
55362;SDS011;41244;49.242;9.060;2024-01-15T12:05:21;34.70;;;16.90;;
55362;SDS011;41244;49.242;9.060;2024-01-15T12:07:48;34.05;;;17.40;;
55362;SDS011;41244;49.242;9.060;2024-01-15T12:15:38;32.83;;;17.70;;
55362;SDS011;41244;49.242;9.060;2024-01-15T12:18:08;32.92;;;17.35;;
55362;SDS011;41244;49.242;9.060;2024-01-15T12:20:35;33.85;;;19.13;;
55362;SDS011;41244;49.242;9.060;2024-01-15T12:23:01;28.63;;;16.83;;
55362;SDS011;41244;49.242;9.060;2024-01-15T12:25:35;26.45;;;15.70;;
55362;SDS011;41244;49.242;9.060;2024-01-15T12:28:01;30.05;;;16.20;;
55362;SDS011;41244;49.242;9.060;2024-01-15T12:30:27;28.15;;;15.27;;
55362;SDS011;41244;49.242;9.060;2024-01-15T12:32:54;28.15;;;15.63;;
55362;SDS011;41244;49.242;9.060;2024-01-15T12:35:20;26.05;;;15.93;;
55362;SDS011;41244;49.242;9.060;2024-01-15T12:37:47;22.05;;;13.43;;
55362;SDS011;41244;49.242;9.060;2024-01-15T12:40:13;24.50;;;14.43;;
55362;SDS011;41244;49.242;9.060;2024-01-15T12:42:40;24.15;;;14.15;;
55362;SDS011;41244;49.242;9.060;2024-01-15T12:45:06;24.30;;;14.35;;
55362;SDS011;41244;49.242;9.060;2024-01-15T12:47:33;27.30;;;16.05;;
55362;SDS011;41244;49.242;9.060;2024-01-15T12:49:59;24.55;;;14.65;;
55362;SDS011;41244;49.242;9.060;2024-01-15T12:52:28;27.23;;;15.82;;
55362;SDS011;41244;49.242;9.060;2024-01-15T12:54:54;22.80;;;14.52;;
55362;SDS011;41244;49.242;9.060;2024-01-15T12:57:21;27.42;;;14.68;;
55362;SDS011;41244;49.242;9.060;2024-01-15T12:59:47;24.15;;;14.82;;
55362;SDS011;41244;49.242;9.060;2024-01-15T13:02:14;25.13;;;16.25;;
55362;SDS011;41244;49.242;9.060;2024-01-15T13:04:41;25.00;;;14.45;;
55362;SDS011;41244;49.242;9.060;2024-01-15T13:07:07;23.17;;;14.68;;
55362;SDS011;41244;49.242;9.060;2024-01-15T13:09:34;23.27;;;13.30;;
55362;SDS011;41244;49.242;9.060;2024-01-15T13:12:00;24.48;;;15.13;;
55362;SDS011;41244;49.242;9.060;2024-01-15T13:14:27;21.13;;;14.02;;
55362;SDS011;41244;49.242;9.060;2024-01-15T13:16:53;20.98;;;12.75;;
55362;SDS011;41244;49.242;9.060;2024-01-15T13:19:20;20.02;;;13.52;;
55362;SDS011;41244;49.242;9.060;2024-01-15T13:21:47;18.58;;;13.77;;
55362;SDS011;41244;49.242;9.060;2024-01-15T13:24:13;19.45;;;12.75;;
55362;SDS011;41244;49.242;9.060;2024-01-15T13:26:39;17.15;;;11.85;;
55362;SDS011;41244;49.242;9.060;2024-01-15T13:29:05;17.10;;;12.23;;
55362;SDS011;41244;49.242;9.060;2024-01-15T13:31:31;18.73;;;11.88;;
55362;SDS011;41244;49.242;9.060;2024-01-15T13:33:57;15.98;;;11.15;;
55362;SDS011;41244;49.242;9.060;2024-01-15T13:36:24;17.90;;;11.60;;
55362;SDS011;41244;49.242;9.060;2024-01-15T13:38:51;18.38;;;13.20;;
55362;SDS011;41244;49.242;9.060;2024-01-15T13:41:20;15.60;;;10.85;;
55362;SDS011;41244;49.242;9.060;2024-01-15T13:43:52;17.48;;;11.30;;
55362;SDS011;41244;49.242;9.060;2024-01-15T13:46:23;18.55;;;11.57;;
55362;SDS011;41244;49.242;9.060;2024-01-15T13:48:51;19.83;;;11.18;;
55362;SDS011;41244;49.242;9.060;2024-01-15T13:51:18;17.27;;;10.93;;
55362;SDS011;41244;49.242;9.060;2024-01-15T13:53:44;16.83;;;11.02;;
55362;SDS011;41244;49.242;9.060;2024-01-15T13:56:10;17.90;;;11.38;;
55362;SDS011;41244;49.242;9.060;2024-01-15T13:58:36;15.02;;;11.18;;
55362;SDS011;41244;49.242;9.060;2024-01-15T14:01:02;16.35;;;11.43;;
55362;SDS011;41244;49.242;9.060;2024-01-15T14:03:30;18.60;;;11.63;;
55362;SDS011;41244;49.242;9.060;2024-01-15T14:05:57;15.43;;;10.98;;
55362;SDS011;41244;49.242;9.060;2024-01-15T14:08:23;17.08;;;12.10;;
55362;SDS011;41244;49.242;9.060;2024-01-15T14:10:49;17.15;;;11.13;;
55362;SDS011;41244;49.242;9.060;2024-01-15T14:13:15;20.92;;;11.70;;
55362;SDS011;41244;49.242;9.060;2024-01-15T14:15:40;19.35;;;10.95;;
55362;SDS011;41244;49.242;9.060;2024-01-15T14:18:06;16.40;;;10.75;;
55362;SDS011;41244;49.242;9.060;2024-01-15T14:20:32;18.55;;;12.95;;
55362;SDS011;41244;49.242;9.060;2024-01-15T14:22:58;14.60;;;10.27;;
55362;SDS011;41244;49.242;9.060;2024-01-15T14:25:24;17.92;;;12.35;;
55362;SDS011;41244;49.242;9.060;2024-01-15T14:27:50;18.00;;;12.23;;
55362;SDS011;41244;49.242;9.060;2024-01-15T14:30:15;21.27;;;16.23;;
55362;SDS011;41244;49.242;9.060;2024-01-15T14:32:44;17.00;;;13.43;;
55362;SDS011;41244;49.242;9.060;2024-01-15T14:35:10;26.08;;;16.98;;
55362;SDS011;41244;49.242;9.060;2024-01-15T14:37:39;17.73;;;11.60;;
55362;SDS011;41244;49.242;9.060;2024-01-15T14:40:05;18.38;;;12.32;;